sensor_id;sensor_type;location;lat;lon;timestamp;P1;durP1;ratioP1;P2;durP2;ratioP2
25409;SDS011;13339;50.840;4.346;2023-04-03T00:00:24;12.07;;;6.60;;
25409;SDS011;13339;50.840;4.346;2023-04-03T00:02:50;14.00;;;6.83;;
25409;SDS011;13339;50.840;4.346;2023-04-03T00:05:16;10.97;;;6.80;;
25409;SDS011;13339;50.840;4.346;2023-04-03T00:07:41;12.43;;;6.67;;
25409;SDS011;13339;50.840;4.346;2023-04-03T00:10:07;13.97;;;6.40;;
25409;SDS011;13339;50.840;4.346;2023-04-03T00:12:33;12.53;;;6.30;;
25409;SDS011;13339;50.840;4.346;2023-04-03T00:14:59;11.53;;;7.30;;
25409;SDS011;13339;50.840;4.346;2023-04-03T00:17:24;10.10;;;6.00;;
25409;SDS011;13339;50.840;4.346;2023-04-03T00:19:50;8.43;;;6.73;;
25409;SDS011;13339;50.840;4.346;2023-04-03T00:22:15;12.93;;;7.50;;
25409;SDS011;13339;50.840;4.346;2023-04-03T00:24:41;9.57;;;6.77;;
25409;SDS011;13339;50.840;4.346;2023-04-03T00:27:07;10.97;;;6.70;;
25409;SDS011;13339;50.840;4.346;2023-04-03T00:29:32;7.90;;;6.23;;
25409;SDS011;13339;50.840;4.346;2023-04-03T00:31:58;9.27;;;6.27;;
25409;SDS011;13339;50.840;4.346;2023-04-03T00:34:23;8.93;;;6.30;;
25409;SDS011;13339;50.840;4.346;2023-04-03T00:36:49;10.63;;;6.57;;
25409;SDS011;13339;50.840;4.346;2023-04-03T00:39:16;9.50;;;6.30;;
25409;SDS011;13339;50.840;4.346;2023-04-03T00:41:41;9.87;;;6.43;;
25409;SDS011;13339;50.840;4.346;2023-04-03T00:44:18;7.53;;;5.60;;
25409;SDS011;13339;50.840;4.346;2023-04-03T00:47:07;8.50;;;5.97;;
25409;SDS011;13339;50.840;4.346;2023-04-03T00:49:36;8.67;;;5.57;;
25409;SDS011;13339;50.840;4.346;2023-04-03T00:52:03;10.77;;;5.90;;
25409;SDS011;13339;50.840;4.346;2023-04-03T00:54:31;7.47;;;5.53;;
25409;SDS011;13339;50.840;4.346;2023-04-03T00:56:59;10.00;;;6.00;;
25409;SDS011;13339;50.840;4.346;2023-04-03T00:59:27;8.07;;;5.47;;
25409;SDS011;13339;50.840;4.346;2023-04-03T01:01:57;9.97;;;6.10;;
25409;SDS011;13339;50.840;4.346;2023-04-03T01:06:52;8.40;;;5.80;;
25409;SDS011;13339;50.840;4.346;2023-04-03T01:09:21;10.87;;;5.97;;
25409;SDS011;13339;50.840;4.346;2023-04-03T01:11:47;11.27;;;6.43;;
25409;SDS011;13339;50.840;4.346;2023-04-03T01:14:13;7.37;;;5.60;;
25409;SDS011;13339;50.840;4.346;2023-04-03T01:16:38;8.70;;;5.73;;
25409;SDS011;13339;50.840;4.346;2023-04-03T01:19:05;7.60;;;5.40;;
25409;SDS011;13339;50.840;4.346;2023-04-03T01:21:41;12.20;;;6.30;;
25409;SDS011;13339;50.840;4.346;2023-04-03T01:26:52;12.77;;;5.73;;
25409;SDS011;13339;50.840;4.346;2023-04-03T01:29:18;13.60;;;6.30;;
25409;SDS011;13339;50.840;4.346;2023-04-03T01:34:10;7.20;;;5.57;;
25409;SDS011;13339;50.840;4.346;2023-04-03T01:36:35;8.47;;;6.03;;
25409;SDS011;13339;50.840;4.346;2023-04-03T01:39:01;11.43;;;6.50;;
25409;SDS011;13339;50.840;4.346;2023-04-03T01:41:27;10.90;;;6.10;;
25409;SDS011;13339;50.840;4.346;2023-04-03T01:43:53;10.47;;;5.63;;
25409;SDS011;13339;50.840;4.346;2023-04-03T01:46:20;10.40;;;6.03;;
25409;SDS011;13339;50.840;4.346;2023-04-03T01:48:45;14.03;;;6.13;;
25409;SDS011;13339;50.840;4.346;2023-04-03T01:51:11;8.13;;;6.13;;
25409;SDS011;13339;50.840;4.346;2023-04-03T01:53:37;10.60;;;5.77;;
25409;SDS011;13339;50.840;4.346;2023-04-03T01:56:02;11.57;;;6.50;;
25409;SDS011;13339;50.840;4.346;2023-04-03T01:58:28;10.60;;;6.03;;
25409;SDS011;13339;50.840;4.346;2023-04-03T02:00:54;10.50;;;6.97;;
25409;SDS011;13339;50.840;4.346;2023-04-03T02:03:20;12.60;;;6.40;;
25409;SDS011;13339;50.840;4.346;2023-04-03T02:05:46;8.70;;;5.97;;
25409;SDS011;13339;50.840;4.346;2023-04-03T02:08:12;10.03;;;6.63;;
25409;SDS011;13339;50.840;4.346;2023-04-03T02:10:38;8.83;;;5.97;;
25409;SDS011;13339;50.840;4.346;2023-04-03T02:13:04;6.47;;;5.53;;
25409;SDS011;13339;50.840;4.346;2023-04-03T02:15:30;6.53;;;5.70;;
25409;SDS011;13339;50.840;4.346;2023-04-03T02:17:56;10.93;;;6.00;;
25409;SDS011;13339;50.840;4.346;2023-04-03T02:20:21;7.73;;;5.60;;
25409;SDS011;13339;50.840;4.346;2023-04-03T02:22:47;7.93;;;5.90;;
25409;SDS011;13339;50.840;4.346;2023-04-03T02:25:13;10.00;;;5.80;;
25409;SDS011;13339;50.840;4.346;2023-04-03T02:27:38;8.07;;;5.87;;
25409;SDS011;13339;50.840;4.346;2023-04-03T02:30:04;12.93;;;5.67;;
25409;SDS011;13339;50.840;4.346;2023-04-03T02:32:31;9.90;;;5.87;;
25409;SDS011;13339;50.840;4.346;2023-04-03T02:34:57;10.83;;;5.67;;
25409;SDS011;13339;50.840;4.346;2023-04-03T02:37:22;8.63;;;5.90;;
25409;SDS011;13339;50.840;4.346;2023-04-03T02:39:48;8.17;;;5.77;;
25409;SDS011;13339;50.840;4.346;2023-04-03T02:42:14;11.00;;;5.77;;
25409;SDS011;13339;50.840;4.346;2023-04-03T02:44:39;8.63;;;6.30;;
25409;SDS011;13339;50.840;4.346;2023-04-03T02:47:05;8.63;;;5.50;;
25409;SDS011;13339;50.840;4.346;2023-04-03T02:49:30;11.13;;;5.83;;
25409;SDS011;13339;50.840;4.346;2023-04-03T02:51:56;8.17;;;5.60;;
25409;SDS011;13339;50.840;4.346;2023-04-03T02:54:22;11.10;;;5.93;;
25409;SDS011;13339;50.840;4.346;2023-04-03T02:56:49;7.77;;;5.10;;
25409;SDS011;13339;50.840;4.346;2023-04-03T02:59:15;12.63;;;6.07;;
25409;SDS011;13339;50.840;4.346;2023-04-03T03:01:40;9.40;;;5.27;;
25409;SDS011;13339;50.840;4.346;2023-04-03T03:04:06;11.13;;;5.27;;
25409;SDS011;13339;50.840;4.346;2023-04-03T03:06:31;7.90;;;5.70;;
25409;SDS011;13339;50.840;4.346;2023-04-03T03:08:57;11.77;;;7.07;;
25409;SDS011;13339;50.840;4.346;2023-04-03T03:11:23;10.97;;;5.80;;
25409;SDS011;13339;50.840;4.346;2023-04-03T03:13:48;8.83;;;5.97;;
25409;SDS011;13339;50.840;4.346;2023-04-03T03:16:14;9.63;;;5.70;;
25409;SDS011;13339;50.840;4.346;2023-04-03T03:18:40;8.97;;;5.70;;
25409;SDS011;13339;50.840;4.346;2023-04-03T03:21:05;9.30;;;5.70;;
25409;SDS011;13339;50.840;4.346;2023-04-03T03:23:31;15.60;;;5.40;;
25409;SDS011;13339;50.840;4.346;2023-04-03T03:26:03;11.77;;;6.17;;
25409;SDS011;13339;50.840;4.346;2023-04-03T03:28:30;8.57;;;5.90;;
25409;SDS011;13339;50.840;4.346;2023-04-03T03:30:57;9.23;;;5.90;;
25409;SDS011;13339;50.840;4.346;2023-04-03T03:33:23;9.03;;;6.10;;
25409;SDS011;13339;50.840;4.346;2023-04-03T03:35:50;8.33;;;5.67;;
25409;SDS011;13339;50.840;4.346;2023-04-03T03:38:16;7.93;;;5.63;;
25409;SDS011;13339;50.840;4.346;2023-04-03T03:40:42;9.33;;;5.87;;
25409;SDS011;13339;50.840;4.346;2023-04-03T03:43:08;10.77;;;6.40;;
25409;SDS011;13339;50.840;4.346;2023-04-03T03:45:33;10.77;;;6.03;;
25409;SDS011;13339;50.840;4.346;2023-04-03T03:47:59;10.77;;;6.67;;
25409;SDS011;13339;50.840;4.346;2023-04-03T03:50:25;10.00;;;6.13;;
25409;SDS011;13339;50.840;4.346;2023-04-03T03:52:50;9.93;;;6.57;;
25409;SDS011;13339;50.840;4.346;2023-04-03T03:55:16;9.00;;;5.97;;
25409;SDS011;13339;50.840;4.346;2023-04-03T03:57:42;12.53;;;6.30;;
25409;SDS011;13339;50.840;4.346;2023-04-03T04:00:08;11.53;;;6.57;;
25409;SDS011;13339;50.840;4.346;2023-04-03T04:02:34;12.90;;;6.83;;
25409;SDS011;13339;50.840;4.346;2023-04-03T04:05:00;13.43;;;6.70;;
25409;SDS011;13339;50.840;4.346;2023-04-03T04:07:25;10.10;;;6.53;;
25409;SDS011;13339;50.840;4.346;2023-04-03T04:09:53;8.67;;;6.33;;
25409;SDS011;13339;50.840;4.346;2023-04-03T04:12:18;15.63;;;7.77;;
25409;SDS011;13339;50.840;4.346;2023-04-03T04:14:45;9.90;;;6.70;;
25409;SDS011;13339;50.840;4.346;2023-04-03T04:17:11;9.27;;;6.53;;
25409;SDS011;13339;50.840;4.346;2023-04-03T04:19:38;13.83;;;7.00;;
25409;SDS011;13339;50.840;4.346;2023-04-03T04:22:04;9.17;;;6.37;;
25409;SDS011;13339;50.840;4.346;2023-04-03T04:24:29;11.40;;;6.67;;
25409;SDS011;13339;50.840;4.346;2023-04-03T04:26:55;13.37;;;6.80;;
25409;SDS011;13339;50.840;4.346;2023-04-03T04:29:20;11.73;;;7.93;;
25409;SDS011;13339;50.840;4.346;2023-04-03T04:31:46;11.73;;;6.43;;
25409;SDS011;13339;50.840;4.346;2023-04-03T04:34:11;12.53;;;7.10;;
25409;SDS011;13339;50.840;4.346;2023-04-03T04:36:40;10.90;;;6.63;;
25409;SDS011;13339;50.840;4.346;2023-04-03T04:39:06;11.03;;;7.27;;
25409;SDS011;13339;50.840;4.346;2023-04-03T04:41:32;10.10;;;6.77;;
25409;SDS011;13339;50.840;4.346;2023-04-03T04:43:57;14.10;;;6.90;;
25409;SDS011;13339;50.840;4.346;2023-04-03T04:46:23;9.07;;;6.90;;
25409;SDS011;13339;50.840;4.346;2023-04-03T04:48:49;10.07;;;6.87;;
25409;SDS011;13339;50.840;4.346;2023-04-03T04:51:14;15.00;;;7.00;;
25409;SDS011;13339;50.840;4.346;2023-04-03T04:53:41;11.83;;;7.30;;
25409;SDS011;13339;50.840;4.346;2023-04-03T04:56:07;12.53;;;7.03;;
25409;SDS011;13339;50.840;4.346;2023-04-03T04:58:33;12.03;;;7.10;;
25409;SDS011;13339;50.840;4.346;2023-04-03T05:00:59;9.17;;;6.67;;
25409;SDS011;13339;50.840;4.346;2023-04-03T05:03:32;10.70;;;7.30;;
25409;SDS011;13339;50.840;4.346;2023-04-03T05:05:58;17.33;;;7.13;;
25409;SDS011;13339;50.840;4.346;2023-04-03T05:08:24;10.87;;;7.00;;
25409;SDS011;13339;50.840;4.346;2023-04-03T05:10:50;10.10;;;7.17;;
25409;SDS011;13339;50.840;4.346;2023-04-03T05:13:15;13.10;;;7.40;;
25409;SDS011;13339;50.840;4.346;2023-04-03T05:15:41;13.23;;;7.97;;
25409;SDS011;13339;50.840;4.346;2023-04-03T05:18:06;9.43;;;8.03;;
25409;SDS011;13339;50.840;4.346;2023-04-03T05:20:33;15.57;;;7.63;;
25409;SDS011;13339;50.840;4.346;2023-04-03T05:22:59;10.23;;;7.13;;
25409;SDS011;13339;50.840;4.346;2023-04-03T05:25:25;15.70;;;8.30;;
25409;SDS011;13339;50.840;4.346;2023-04-03T05:27:51;11.63;;;7.50;;
25409;SDS011;13339;50.840;4.346;2023-04-03T05:30:17;12.50;;;8.73;;
25409;SDS011;13339;50.840;4.346;2023-04-03T05:32:43;10.60;;;8.40;;
25409;SDS011;13339;50.840;4.346;2023-04-03T05:35:08;11.97;;;8.03;;
25409;SDS011;13339;50.840;4.346;2023-04-03T05:37:34;11.30;;;8.70;;
25409;SDS011;13339;50.840;4.346;2023-04-03T05:40:00;13.03;;;8.50;;
25409;SDS011;13339;50.840;4.346;2023-04-03T05:42:27;15.70;;;8.47;;
25409;SDS011;13339;50.840;4.346;2023-04-03T05:44:52;15.73;;;8.50;;
25409;SDS011;13339;50.840;4.346;2023-04-03T05:47:18;15.57;;;8.53;;
25409;SDS011;13339;50.840;4.346;2023-04-03T05:49:44;15.93;;;8.30;;
25409;SDS011;13339;50.840;4.346;2023-04-03T05:52:31;14.43;;;9.07;;
25409;SDS011;13339;50.840;4.346;2023-04-03T05:55:03;17.60;;;8.57;;
25409;SDS011;13339;50.840;4.346;2023-04-03T05:57:30;17.50;;;9.97;;
25409;SDS011;13339;50.840;4.346;2023-04-03T05:59:55;16.30;;;8.70;;
25409;SDS011;13339;50.840;4.346;2023-04-03T06:02:22;13.90;;;9.20;;
25409;SDS011;13339;50.840;4.346;2023-04-03T06:04:48;13.60;;;9.30;;
25409;SDS011;13339;50.840;4.346;2023-04-03T06:07:16;12.80;;;9.30;;
25409;SDS011;13339;50.840;4.346;2023-04-03T06:09:46;14.43;;;8.80;;
25409;SDS011;13339;50.840;4.346;2023-04-03T06:12:12;14.33;;;9.37;;
25409;SDS011;13339;50.840;4.346;2023-04-03T06:14:37;15.80;;;8.83;;
25409;SDS011;13339;50.840;4.346;2023-04-03T06:17:03;13.67;;;9.20;;
25409;SDS011;13339;50.840;4.346;2023-04-03T06:19:29;15.27;;;9.23;;
25409;SDS011;13339;50.840;4.346;2023-04-03T06:21:55;12.63;;;8.67;;
25409;SDS011;13339;50.840;4.346;2023-04-03T06:24:21;16.13;;;9.50;;
25409;SDS011;13339;50.840;4.346;2023-04-03T06:26:49;11.43;;;8.17;;
25409;SDS011;13339;50.840;4.346;2023-04-03T06:29:16;13.33;;;8.87;;
25409;SDS011;13339;50.840;4.346;2023-04-03T06:31:42;18.40;;;10.10;;
25409;SDS011;13339;50.840;4.346;2023-04-03T06:34:08;14.67;;;9.37;;
25409;SDS011;13339;50.840;4.346;2023-04-03T06:36:34;13.17;;;9.00;;
25409;SDS011;13339;50.840;4.346;2023-04-03T06:39:00;16.33;;;9.07;;
25409;SDS011;13339;50.840;4.346;2023-04-03T06:41:26;13.80;;;9.00;;
25409;SDS011;13339;50.840;4.346;2023-04-03T06:43:52;17.23;;;10.47;;
25409;SDS011;13339;50.840;4.346;2023-04-03T06:46:19;18.13;;;8.83;;
25409;SDS011;13339;50.840;4.346;2023-04-03T06:48:46;14.87;;;10.20;;
25409;SDS011;13339;50.840;4.346;2023-04-03T06:51:22;16.43;;;9.47;;
25409;SDS011;13339;50.840;4.346;2023-04-03T06:53:53;14.70;;;9.03;;
25409;SDS011;13339;50.840;4.346;2023-04-03T06:56:20;14.87;;;10.23;;
25409;SDS011;13339;50.840;4.346;2023-04-03T06:58:47;19.80;;;10.98;;
25409;SDS011;13339;50.840;4.346;2023-04-03T07:01:13;20.23;;;10.53;;
25409;SDS011;13339;50.840;4.346;2023-04-03T07:03:41;18.47;;;10.63;;
25409;SDS011;13339;50.840;4.346;2023-04-03T07:06:07;16.80;;;11.10;;
25409;SDS011;13339;50.840;4.346;2023-04-03T07:08:36;17.47;;;11.07;;
25409;SDS011;13339;50.840;4.346;2023-04-03T07:11:02;19.07;;;11.23;;
25409;SDS011;13339;50.840;4.346;2023-04-03T07:13:28;18.37;;;11.13;;
25409;SDS011;13339;50.840;4.346;2023-04-03T07:15:54;16.77;;;11.07;;
25409;SDS011;13339;50.840;4.346;2023-04-03T07:18:19;22.97;;;10.50;;
25409;SDS011;13339;50.840;4.346;2023-04-03T07:20:46;23.33;;;10.37;;
25409;SDS011;13339;50.840;4.346;2023-04-03T07:23:12;15.70;;;9.80;;
25409;SDS011;13339;50.840;4.346;2023-04-03T07:25:44;13.63;;;9.70;;
25409;SDS011;13339;50.840;4.346;2023-04-03T07:28:11;12.33;;;10.03;;
25409;SDS011;13339;50.840;4.346;2023-04-03T07:30:45;14.60;;;10.07;;
25409;SDS011;13339;50.840;4.346;2023-04-03T07:33:12;17.80;;;9.20;;
25409;SDS011;13339;50.840;4.346;2023-04-03T07:35:38;22.23;;;9.50;;
25409;SDS011;13339;50.840;4.346;2023-04-03T07:38:05;14.97;;;9.83;;
25409;SDS011;13339;50.840;4.346;2023-04-03T07:40:31;16.73;;;9.47;;
25409;SDS011;13339;50.840;4.346;2023-04-03T07:42:56;19.23;;;9.53;;
25409;SDS011;13339;50.840;4.346;2023-04-03T07:45:22;11.73;;;8.53;;
25409;SDS011;13339;50.840;4.346;2023-04-03T07:47:48;12.73;;;9.93;;
25409;SDS011;13339;50.840;4.346;2023-04-03T07:50:14;18.97;;;9.90;;
25409;SDS011;13339;50.840;4.346;2023-04-03T07:52:40;18.33;;;9.17;;
25409;SDS011;13339;50.840;4.346;2023-04-03T07:55:06;15.70;;;9.87;;
25409;SDS011;13339;50.840;4.346;2023-04-03T07:57:32;17.47;;;9.37;;
25409;SDS011;13339;50.840;4.346;2023-04-03T07:59:57;22.53;;;9.13;;
25409;SDS011;13339;50.840;4.346;2023-04-03T08:02:23;10.97;;;8.80;;
25409;SDS011;13339;50.840;4.346;2023-04-03T08:04:49;11.23;;;8.37;;
25409;SDS011;13339;50.840;4.346;2023-04-03T08:07:15;11.57;;;7.67;;
25409;SDS011;13339;50.840;4.346;2023-04-03T08:09:40;15.63;;;9.03;;
25409;SDS011;13339;50.840;4.346;2023-04-03T08:12:06;12.67;;;8.37;;
25409;SDS011;13339;50.840;4.346;2023-04-03T08:14:32;14.43;;;7.70;;
25409;SDS011;13339;50.840;4.346;2023-04-03T08:16:59;10.70;;;7.80;;
25409;SDS011;13339;50.840;4.346;2023-04-03T08:19:25;11.10;;;7.80;;
25409;SDS011;13339;50.840;4.346;2023-04-03T08:21:51;10.90;;;8.13;;
25409;SDS011;13339;50.840;4.346;2023-04-03T08:24:17;12.67;;;8.37;;
25409;SDS011;13339;50.840;4.346;2023-04-03T08:26:42;16.60;;;9.13;;
25409;SDS011;13339;50.840;4.346;2023-04-03T08:29:08;16.57;;;8.20;;
25409;SDS011;13339;50.840;4.346;2023-04-03T08:31:34;17.43;;;9.60;;
25409;SDS011;13339;50.840;4.346;2023-04-03T08:33:59;14.37;;;8.37;;
25409;SDS011;13339;50.840;4.346;2023-04-03T08:36:25;15.37;;;8.23;;
25409;SDS011;13339;50.840;4.346;2023-04-03T08:38:53;9.27;;;8.30;;
25409;SDS011;13339;50.840;4.346;2023-04-03T08:41:25;17.90;;;8.80;;
25409;SDS011;13339;50.840;4.346;2023-04-03T08:49:35;11.17;;;7.73;;
25409;SDS011;13339;50.840;4.346;2023-04-03T08:52:20;15.30;;;8.60;;
25409;SDS011;13339;50.840;4.346;2023-04-03T08:54:52;10.17;;;7.97;;
25409;SDS011;13339;50.840;4.346;2023-04-03T08:57:32;15.63;;;7.73;;
25409;SDS011;13339;50.840;4.346;2023-04-03T09:00:15;9.70;;;6.77;;
25409;SDS011;13339;50.840;4.346;2023-04-03T09:02:48;12.73;;;7.30;;
25409;SDS011;13339;50.840;4.346;2023-04-03T09:05:43;8.37;;;6.40;;
25409;SDS011;13339;50.840;4.346;2023-04-03T09:08:19;8.57;;;6.33;;
25409;SDS011;13339;50.840;4.346;2023-04-03T09:10:48;9.53;;;5.80;;
25409;SDS011;13339;50.840;4.346;2023-04-03T09:16:54;9.40;;;6.20;;
25409;SDS011;13339;50.840;4.346;2023-04-03T09:21:57;9.43;;;6.63;;
25409;SDS011;13339;50.840;4.346;2023-04-03T09:24:44;11.37;;;6.13;;
25409;SDS011;13339;50.840;4.346;2023-04-03T09:27:12;8.53;;;5.47;;
25409;SDS011;13339;50.840;4.346;2023-04-03T09:29:39;11.57;;;5.80;;
25409;SDS011;13339;50.840;4.346;2023-04-03T09:32:29;11.67;;;4.80;;
25409;SDS011;13339;50.840;4.346;2023-04-03T09:34:54;8.50;;;4.10;;
25409;SDS011;13339;50.840;4.346;2023-04-03T09:37:33;13.37;;;4.70;;
25409;SDS011;13339;50.840;4.346;2023-04-03T09:40:02;7.33;;;3.57;;
25409;SDS011;13339;50.840;4.346;2023-04-03T09:42:29;7.63;;;4.30;;
25409;SDS011;13339;50.840;4.346;2023-04-03T09:45:03;7.00;;;3.47;;
25409;SDS011;13339;50.840;4.346;2023-04-03T09:47:31;5.27;;;3.00;;
25409;SDS011;13339;50.840;4.346;2023-04-03T09:52:39;6.30;;;2.93;;
25409;SDS011;13339;50.840;4.346;2023-04-03T09:55:13;9.13;;;3.40;;
25409;SDS011;13339;50.840;4.346;2023-04-03T09:57:43;7.20;;;3.33;;
25409;SDS011;13339;50.840;4.346;2023-04-03T10:03:00;4.97;;;3.03;;
25409;SDS011;13339;50.840;4.346;2023-04-03T10:05:31;8.40;;;3.77;;
25409;SDS011;13339;50.840;4.346;2023-04-03T10:10:36;6.40;;;2.70;;
25409;SDS011;13339;50.840;4.346;2023-04-03T10:13:06;6.80;;;2.90;;
25409;SDS011;13339;50.840;4.346;2023-04-03T10:15:39;10.07;;;3.50;;
25409;SDS011;13339;50.840;4.346;2023-04-03T10:18:29;6.57;;;2.77;;
25409;SDS011;13339;50.840;4.346;2023-04-03T10:24:14;4.53;;;2.67;;
25409;SDS011;13339;50.840;4.346;2023-04-03T10:29:48;9.73;;;2.97;;
25409;SDS011;13339;50.840;4.346;2023-04-03T10:32:28;8.33;;;6.17;;
25409;SDS011;13339;50.840;4.346;2023-04-03T10:35:02;30.87;;;15.20;;
25409;SDS011;13339;50.840;4.346;2023-04-03T10:37:59;12.57;;;5.50;;
25409;SDS011;13339;50.840;4.346;2023-04-03T10:40:37;11.53;;;6.23;;
25409;SDS011;13339;50.840;4.346;2023-04-03T10:53:51;5.13;;;2.40;;
25409;SDS011;13339;50.840;4.346;2023-04-03T10:56:35;4.47;;;2.60;;
25409;SDS011;13339;50.840;4.346;2023-04-03T11:01:50;7.50;;;2.57;;
25409;SDS011;13339;50.840;4.346;2023-04-03T11:04:19;4.47;;;2.77;;
25409;SDS011;13339;50.840;4.346;2023-04-03T11:06:57;4.77;;;2.13;;
25409;SDS011;13339;50.840;4.346;2023-04-03T11:09:35;4.43;;;2.20;;
25409;SDS011;13339;50.840;4.346;2023-04-03T11:12:11;9.83;;;2.50;;
25409;SDS011;13339;50.840;4.346;2023-04-03T11:14:41;6.53;;;2.50;;
25409;SDS011;13339;50.840;4.346;2023-04-03T11:22:39;6.23;;;2.27;;
25409;SDS011;13339;50.840;4.346;2023-04-03T11:25:14;5.27;;;2.00;;
25409;SDS011;13339;50.840;4.346;2023-04-03T11:27:48;4.40;;;1.90;;
25409;SDS011;13339;50.840;4.346;2023-04-03T11:35:56;6.63;;;2.17;;
25409;SDS011;13339;50.840;4.346;2023-04-03T11:38:30;4.80;;;2.40;;
25409;SDS011;13339;50.840;4.346;2023-04-03T11:41:01;9.77;;;3.00;;
25409;SDS011;13339;50.840;4.346;2023-04-03T11:43:30;5.23;;;2.57;;
25409;SDS011;13339;50.840;4.346;2023-04-03T11:46:00;20.17;;;2.80;;
25409;SDS011;13339;50.840;4.346;2023-04-03T11:53:30;8.90;;;2.87;;
25409;SDS011;13339;50.840;4.346;2023-04-03T11:55:59;8.67;;;2.70;;
25409;SDS011;13339;50.840;4.346;2023-04-03T12:04:21;4.93;;;2.40;;
25409;SDS011;13339;50.840;4.346;2023-04-03T12:06:50;5.87;;;1.93;;
25409;SDS011;13339;50.840;4.346;2023-04-03T12:15:17;4.17;;;2.23;;
25409;SDS011;13339;50.840;4.346;2023-04-03T12:17:46;12.67;;;2.40;;
25409;SDS011;13339;50.840;4.346;2023-04-03T12:23:27;9.90;;;2.70;;
25409;SDS011;13339;50.840;4.346;2023-04-03T12:28:51;3.80;;;2.03;;
25409;SDS011;13339;50.840;4.346;2023-04-03T12:31:18;4.13;;;2.17;;
25409;SDS011;13339;50.840;4.346;2023-04-03T12:34:06;6.23;;;2.00;;
25409;SDS011;13339;50.840;4.346;2023-04-03T12:36:52;3.20;;;1.93;;
25409;SDS011;13339;50.840;4.346;2023-04-03T12:42:58;4.20;;;1.93;;
25409;SDS011;13339;50.840;4.346;2023-04-03T12:45:20;4.17;;;2.17;;
25409;SDS011;13339;50.840;4.346;2023-04-03T12:47:51;7.57;;;2.43;;
25409;SDS011;13339;50.840;4.346;2023-04-03T12:50:22;3.40;;;2.00;;
25409;SDS011;13339;50.840;4.346;2023-04-03T12:52:56;3.27;;;1.87;;
25409;SDS011;13339;50.840;4.346;2023-04-03T12:55:26;3.07;;;1.90;;
25409;SDS011;13339;50.840;4.346;2023-04-03T12:57:52;3.00;;;1.90;;
25409;SDS011;13339;50.840;4.346;2023-04-03T13:00:18;2.43;;;1.60;;
25409;SDS011;13339;50.840;4.346;2023-04-03T13:02:58;3.93;;;1.83;;
25409;SDS011;13339;50.840;4.346;2023-04-03T13:05:24;5.60;;;1.73;;
25409;SDS011;13339;50.840;4.346;2023-04-03T13:07:56;2.97;;;1.67;;
25409;SDS011;13339;50.840;4.346;2023-04-03T13:10:28;6.00;;;2.03;;
25409;SDS011;13339;50.840;4.346;2023-04-03T13:12:58;4.57;;;2.50;;
25409;SDS011;13339;50.840;4.346;2023-04-03T13:15:43;4.77;;;1.80;;
25409;SDS011;13339;50.840;4.346;2023-04-03T13:18:23;3.50;;;1.67;;
25409;SDS011;13339;50.840;4.346;2023-04-03T13:20:57;3.60;;;1.70;;
25409;SDS011;13339;50.840;4.346;2023-04-03T13:23:26;4.63;;;2.10;;
25409;SDS011;13339;50.840;4.346;2023-04-03T13:25:53;3.17;;;1.60;;
25409;SDS011;13339;50.840;4.346;2023-04-03T13:28:21;3.73;;;2.20;;
25409;SDS011;13339;50.840;4.346;2023-04-03T13:30:59;2.37;;;1.63;;
25409;SDS011;13339;50.840;4.346;2023-04-03T13:33:29;2.33;;;1.90;;
25409;SDS011;13339;50.840;4.346;2023-04-03T13:36:03;3.30;;;1.83;;
25409;SDS011;13339;50.840;4.346;2023-04-03T13:38:34;4.67;;;1.80;;
25409;SDS011;13339;50.840;4.346;2023-04-03T13:41:04;8.23;;;2.23;;
25409;SDS011;13339;50.840;4.346;2023-04-03T13:43:46;2.53;;;1.60;;
25409;SDS011;13339;50.840;4.346;2023-04-03T13:48:42;6.53;;;1.77;;
25409;SDS011;13339;50.840;4.346;2023-04-03T13:53:52;2.93;;;1.77;;
25409;SDS011;13339;50.840;4.346;2023-04-03T13:56:25;4.93;;;2.27;;
25409;SDS011;13339;50.840;4.346;2023-04-03T13:59:05;2.73;;;2.03;;
25409;SDS011;13339;50.840;4.346;2023-04-03T14:04:27;5.90;;;2.10;;
25409;SDS011;13339;50.840;4.346;2023-04-03T14:06:55;5.53;;;2.00;;
25409;SDS011;13339;50.840;4.346;2023-04-03T14:09:22;7.00;;;2.00;;
25409;SDS011;13339;50.840;4.346;2023-04-03T14:11:50;5.57;;;2.20;;
25409;SDS011;13339;50.840;4.346;2023-04-03T14:14:20;4.20;;;1.83;;
25409;SDS011;13339;50.840;4.346;2023-04-03T14:16:58;4.13;;;2.20;;
25409;SDS011;13339;50.840;4.346;2023-04-03T14:19:31;5.30;;;2.17;;
25409;SDS011;13339;50.840;4.346;2023-04-03T14:21:58;3.63;;;2.37;;
25409;SDS011;13339;50.840;4.346;2023-04-03T14:24:25;8.27;;;2.33;;
25409;SDS011;13339;50.840;4.346;2023-04-03T14:26:53;4.53;;;2.40;;
25409;SDS011;13339;50.840;4.346;2023-04-03T14:29:20;6.10;;;2.50;;
25409;SDS011;13339;50.840;4.346;2023-04-03T14:31:47;4.77;;;2.40;;
25409;SDS011;13339;50.840;4.346;2023-04-03T14:34:15;2.57;;;1.70;;
25409;SDS011;13339;50.840;4.346;2023-04-03T14:36:41;5.00;;;2.15;;
25409;SDS011;13339;50.840;4.346;2023-04-03T14:39:10;4.43;;;2.10;;
25409;SDS011;13339;50.840;4.346;2023-04-03T14:41:40;4.30;;;2.20;;
25409;SDS011;13339;50.840;4.346;2023-04-03T14:44:07;5.60;;;2.10;;
25409;SDS011;13339;50.840;4.346;2023-04-03T14:46:34;3.93;;;1.83;;
25409;SDS011;13339;50.840;4.346;2023-04-03T14:49:02;3.57;;;2.00;;
25409;SDS011;13339;50.840;4.346;2023-04-03T14:51:33;3.90;;;2.00;;
25409;SDS011;13339;50.840;4.346;2023-04-03T14:53:59;8.03;;;2.30;;
25409;SDS011;13339;50.840;4.346;2023-04-03T14:56:26;4.07;;;1.80;;
25409;SDS011;13339;50.840;4.346;2023-04-03T14:58:55;6.93;;;1.83;;
25409;SDS011;13339;50.840;4.346;2023-04-03T15:01:26;3.90;;;1.70;;
25409;SDS011;13339;50.840;4.346;2023-04-03T15:03:53;5.27;;;1.80;;
25409;SDS011;13339;50.840;4.346;2023-04-03T15:06:19;4.57;;;2.00;;
25409;SDS011;13339;50.840;4.346;2023-04-03T15:08:46;5.03;;;1.90;;
25409;SDS011;13339;50.840;4.346;2023-04-03T15:11:13;4.20;;;2.10;;
25409;SDS011;13339;50.840;4.346;2023-04-03T15:13:40;3.43;;;1.90;;
25409;SDS011;13339;50.840;4.346;2023-04-03T15:16:08;6.63;;;2.30;;
25409;SDS011;13339;50.840;4.346;2023-04-03T15:18:40;4.47;;;2.13;;
25409;SDS011;13339;50.840;4.346;2023-04-03T15:21:05;5.53;;;1.83;;
25409;SDS011;13339;50.840;4.346;2023-04-03T15:23:31;3.53;;;1.80;;
25409;SDS011;13339;50.840;4.346;2023-04-03T15:25:56;5.00;;;2.20;;
25409;SDS011;13339;50.840;4.346;2023-04-03T15:30:53;5.70;;;1.60;;
25409;SDS011;13339;50.840;4.346;2023-04-03T15:33:19;7.13;;;2.17;;
25409;SDS011;13339;50.840;4.346;2023-04-03T15:35:44;3.63;;;1.87;;
25409;SDS011;13339;50.840;4.346;2023-04-03T15:38:10;2.93;;;1.80;;
25409;SDS011;13339;50.840;4.346;2023-04-03T15:40:36;3.40;;;1.80;;
25409;SDS011;13339;50.840;4.346;2023-04-03T15:43:02;2.70;;;1.93;;
25409;SDS011;13339;50.840;4.346;2023-04-03T15:45:29;4.80;;;2.40;;
25409;SDS011;13339;50.840;4.346;2023-04-03T15:47:57;3.40;;;1.70;;
25409;SDS011;13339;50.840;4.346;2023-04-03T15:50:22;4.73;;;1.93;;
25409;SDS011;13339;50.840;4.346;2023-04-03T15:52:49;4.20;;;2.10;;
25409;SDS011;13339;50.840;4.346;2023-04-03T15:55:19;4.50;;;2.07;;
25409;SDS011;13339;50.840;4.346;2023-04-03T15:57:46;3.33;;;2.00;;
25409;SDS011;13339;50.840;4.346;2023-04-03T16:00:12;6.27;;;2.37;;
25409;SDS011;13339;50.840;4.346;2023-04-03T16:02:38;3.60;;;2.40;;
25409;SDS011;13339;50.840;4.346;2023-04-03T16:05:04;3.57;;;2.17;;
25409;SDS011;13339;50.840;4.346;2023-04-03T16:07:30;4.13;;;2.50;;
25409;SDS011;13339;50.840;4.346;2023-04-03T16:09:56;7.07;;;2.40;;
25409;SDS011;13339;50.840;4.346;2023-04-03T16:12:21;4.73;;;2.10;;
25409;SDS011;13339;50.840;4.346;2023-04-03T16:14:47;5.90;;;2.40;;
25409;SDS011;13339;50.840;4.346;2023-04-03T16:17:12;4.87;;;2.33;;
25409;SDS011;13339;50.840;4.346;2023-04-03T16:19:38;3.17;;;2.00;;
25409;SDS011;13339;50.840;4.346;2023-04-03T16:22:04;4.93;;;2.00;;